createdAt,value
2017-09-11T00:01:53.089Z,11.40
2017-09-11T00:04:20.676Z,11.30
2017-09-11T00:06:48.284Z,11.30
2017-09-11T00:09:15.851Z,11.30
2017-09-11T00:11:43.422Z,11.40
2017-09-11T00:14:10.943Z,11.40
2017-09-11T00:16:39.283Z,11.20
2017-09-11T00:19:06.822Z,11.20
2017-09-11T00:21:34.457Z,11.20
2017-09-11T00:24:02.001Z,11.20
2017-09-11T00:26:29.600Z,11.20
2017-09-11T00:28:57.162Z,11.30
2017-09-11T00:31:24.786Z,11.30
2017-09-11T00:33:52.382Z,11.30
2017-09-11T00:36:19.950Z,11.30
2017-09-11T00:38:47.522Z,11.30
2017-09-11T00:41:15.109Z,11.20
2017-09-11T00:43:42.676Z,11.30
2017-09-11T00:46:10.234Z,11.40
2017-09-11T00:48:37.837Z,11.40
2017-09-11T00:51:05.500Z,11.40
2017-09-11T00:53:33.056Z,11.60
2017-09-11T00:56:00.663Z,11.70
2017-09-11T00:58:28.224Z,11.70
2017-09-11T01:00:55.794Z,11.70
2017-09-11T01:03:23.355Z,11.70
2017-09-11T01:05:51.548Z,11.60
2017-09-11T01:08:19.112Z,11.70
2017-09-11T01:10:46.697Z,11.70
2017-09-11T01:13:14.224Z,11.70
2017-09-11T01:15:41.828Z,11.70
2017-09-11T01:18:09.368Z,11.80
2017-09-11T01:20:37.039Z,11.70
2017-09-11T01:23:04.636Z,11.70
2017-09-11T01:25:32.221Z,11.80
2017-09-11T01:28:00.272Z,11.60
2017-09-11T01:30:28.127Z,11.60
2017-09-11T01:32:55.749Z,11.50
2017-09-11T01:35:24.156Z,11.50
2017-09-11T01:37:51.719Z,11.50
2017-09-11T01:40:19.332Z,11.50
2017-09-11T01:42:46.940Z,11.40
2017-09-11T01:45:14.564Z,11.40
2017-09-11T01:47:42.151Z,11.40
2017-09-11T01:50:10.542Z,11.40
2017-09-11T01:52:38.080Z,11.40
2017-09-11T01:55:05.710Z,11.40
2017-09-11T01:57:34.042Z,11.30
2017-09-11T02:00:01.673Z,11.20
2017-09-11T02:02:30.042Z,11.30
2017-09-11T02:04:57.724Z,11.30
2017-09-11T02:07:26.021Z,11.30
2017-09-11T02:09:53.628Z,11.30
2017-09-11T02:12:21.242Z,11.20
2017-09-11T02:14:48.830Z,11.20
2017-09-11T02:17:17.215Z,11.20
2017-09-11T02:19:44.771Z,11.20
2017-09-11T02:22:12.435Z,11.10
2017-09-11T02:24:40.032Z,11.10
2017-09-11T02:27:08.371Z,11.00
2017-09-11T02:29:36.900Z,11.00
2017-09-11T02:32:04.512Z,11.00
2017-09-11T02:34:32.828Z,11.00
2017-09-11T02:37:00.430Z,11.00
2017-09-11T02:39:28.010Z,11.00
2017-09-11T02:41:56.591Z,11.00
2017-09-11T02:44:24.130Z,11.00
2017-09-11T02:46:52.593Z,11.00
2017-09-11T02:49:20.180Z,11.00
2017-09-11T02:51:48.609Z,11.00
2017-09-11T02:54:16.227Z,11.00
2017-09-11T02:56:43.829Z,11.10
2017-09-11T02:59:11.417Z,11.00
2017-09-11T03:01:39.092Z,11.00
2017-09-11T03:04:06.647Z,11.00
2017-09-11T03:06:34.180Z,10.90
2017-09-11T03:09:01.820Z,11.00
2017-09-11T03:11:29.360Z,11.10
2017-09-11T03:13:56.994Z,11.10
2017-09-11T03:16:24.682Z,11.20
2017-09-11T03:18:52.247Z,11.20
2017-09-11T03:21:21.419Z,11.30
2017-09-11T03:23:48.983Z,11.30
2017-09-11T03:26:17.359Z,11.50
2017-09-11T03:28:44.947Z,11.50
2017-09-11T03:31:12.544Z,11.50
2017-09-11T03:33:41.091Z,11.80
2017-09-11T03:36:09.451Z,11.80
2017-09-11T03:38:37.045Z,11.80
2017-09-11T03:41:04.639Z,11.90
2017-09-11T03:43:32.515Z,12.10
2017-09-11T03:46:00.141Z,12.20
2017-09-11T03:48:28.038Z,12.30
2017-09-11T03:50:55.915Z,12.40
2017-09-11T03:53:27.302Z,12.50
2017-09-11T03:55:54.898Z,12.50
2017-09-11T03:58:22.552Z,12.70
2017-09-11T04:00:50.201Z,12.70
2017-09-11T04:03:17.774Z,12.80
2017-09-11T04:05:45.342Z,12.90
2017-09-11T04:08:13.712Z,13.20
2017-09-11T04:10:42.724Z,13.20
2017-09-11T04:13:10.287Z,13.20
2017-09-11T04:15:37.822Z,13.40
2017-09-11T04:18:05.472Z,13.50
2017-09-11T04:20:33.843Z,13.70
2017-09-11T04:23:01.433Z,13.70
2017-09-11T04:25:28.958Z,13.80
2017-09-11T04:27:56.527Z,13.80
2017-09-11T04:30:24.844Z,14.00
2017-09-11T04:32:52.444Z,14.00
2017-09-11T04:35:20.104Z,14.00
2017-09-11T04:37:47.677Z,14.10
2017-09-11T04:40:15.210Z,14.10
2017-09-11T04:42:42.831Z,14.10
2017-09-11T04:45:10.427Z,14.20
2017-09-11T04:47:37.991Z,14.20
2017-09-11T04:50:05.519Z,14.30
2017-09-11T04:52:33.040Z,14.30
2017-09-11T04:55:00.616Z,14.40
2017-09-11T04:57:28.489Z,14.40
2017-09-11T04:59:56.793Z,14.50
2017-09-11T05:02:24.411Z,14.50
2017-09-11T05:04:51.978Z,14.60
2017-09-11T05:07:19.605Z,14.60
2017-09-11T05:09:47.201Z,14.70
2017-09-11T05:12:14.840Z,14.80
2017-09-11T05:14:42.402Z,14.80
2017-09-11T05:17:09.974Z,14.90
2017-09-11T05:19:37.506Z,14.90
2017-09-11T05:22:05.127Z,14.90
2017-09-11T05:24:32.771Z,15.00
2017-09-11T05:27:00.923Z,15.00
2017-09-11T05:29:28.520Z,15.10
2017-09-11T05:31:56.926Z,15.20
2017-09-11T05:34:24.517Z,15.10
2017-09-11T05:36:52.946Z,15.00
2017-09-11T05:39:20.600Z,15.00
2017-09-11T05:41:48.199Z,15.00
2017-09-11T05:44:15.766Z,15.10
2017-09-11T05:46:43.324Z,15.20
2017-09-11T05:49:10.921Z,15.30
2017-09-11T05:51:39.281Z,15.30
2017-09-11T05:54:07.615Z,15.30
2017-09-11T05:56:35.192Z,15.30
2017-09-11T05:59:03.515Z,15.50
2017-09-11T06:01:31.081Z,15.40
2017-09-11T06:03:58.696Z,15.40
2017-09-11T06:06:26.292Z,15.40
2017-09-11T06:08:54.664Z,15.50
2017-09-11T06:11:23.414Z,15.60
2017-09-11T06:13:51.911Z,15.60
2017-09-11T06:16:20.321Z,15.80
2017-09-11T06:18:49.934Z,15.80
2017-09-11T06:21:24.109Z,16.00
2017-09-11T06:23:51.712Z,16.00
2017-09-11T06:26:19.243Z,16.00
2017-09-11T06:28:47.560Z,16.10
2017-09-11T06:31:15.119Z,16.00
2017-09-11T06:33:42.643Z,16.20
2017-09-11T06:36:10.203Z,16.20
2017-09-11T06:38:37.732Z,16.20
2017-09-11T06:41:05.291Z,16.20
2017-09-11T06:43:32.819Z,16.20
2017-09-11T06:46:00.392Z,16.20
2017-09-11T06:48:27.933Z,16.20
2017-09-11T06:50:55.536Z,16.20
2017-09-11T06:53:23.072Z,16.10
2017-09-11T06:55:50.670Z,16.00
2017-09-11T06:58:18.220Z,15.90
2017-09-11T07:00:45.801Z,15.90
2017-09-11T07:03:14.102Z,15.70
2017-09-11T07:05:41.759Z,15.70
2017-09-11T07:08:09.301Z,15.60
2017-09-11T07:10:36.862Z,15.60
2017-09-11T07:13:16.479Z,15.60
2017-09-11T07:15:44.043Z,15.50
2017-09-11T07:18:11.575Z,15.60
2017-09-11T07:20:39.213Z,15.70
2017-09-11T07:23:06.738Z,15.60
2017-09-11T07:25:34.323Z,15.50
2017-09-11T07:28:01.859Z,15.60
2017-09-11T07:30:29.424Z,15.60
2017-09-11T07:32:56.947Z,15.40
2017-09-11T07:35:24.521Z,15.50
2017-09-11T07:37:52.822Z,15.50
2017-09-11T07:40:20.392Z,15.40
2017-09-11T07:42:47.967Z,15.50
2017-09-11T07:45:15.796Z,15.40
2017-09-11T07:47:43.329Z,15.50
2017-09-11T07:50:10.887Z,15.50
2017-09-11T07:52:38.419Z,15.50
2017-09-11T07:55:06.071Z,15.60
2017-09-11T07:57:33.593Z,15.60
2017-09-11T08:00:01.165Z,15.70
2017-09-11T08:02:28.705Z,15.60
2017-09-11T08:04:56.267Z,15.60
2017-09-11T08:07:23.892Z,15.70
2017-09-11T08:09:51.474Z,15.80
2017-09-11T08:12:19.003Z,15.80
2017-09-11T08:14:46.576Z,15.80
2017-09-11T08:17:14.877Z,15.80
2017-09-11T08:19:42.473Z,15.80
2017-09-11T08:22:10.015Z,15.80
2017-09-11T08:24:38.315Z,15.70
2017-09-11T08:27:05.878Z,15.80
2017-09-11T08:29:33.403Z,15.70
2017-09-11T08:32:00.979Z,15.70
2017-09-11T08:34:28.511Z,15.80
2017-09-11T08:36:56.074Z,15.80
2017-09-11T08:39:23.618Z,15.90
2017-09-11T08:41:51.198Z,15.90
2017-09-11T08:44:19.544Z,16.00
2017-09-11T08:46:47.087Z,16.00
2017-09-11T08:49:14.618Z,15.90
2017-09-11T08:51:42.190Z,16.10
2017-09-11T08:54:09.718Z,16.20
2017-09-11T08:56:37.293Z,16.40
2017-09-11T08:59:05.591Z,16.90
2017-09-11T09:01:33.170Z,16.90
2017-09-11T09:04:00.729Z,17.10
2017-09-11T09:06:28.332Z,17.30
2017-09-11T09:08:55.868Z,17.40
2017-09-11T09:11:23.395Z,17.60
2017-09-11T09:13:51.753Z,17.60
2017-09-11T09:16:20.057Z,17.60
2017-09-11T09:18:48.428Z,17.70
2017-09-11T09:21:15.984Z,17.70
2017-09-11T09:23:43.556Z,17.60
2017-09-11T09:26:11.850Z,17.70
2017-09-11T09:28:39.411Z,17.70
2017-09-11T09:31:06.951Z,17.60
2017-09-11T09:33:34.618Z,17.50
2017-09-11T09:36:02.144Z,17.50
2017-09-11T09:38:29.719Z,17.50
2017-09-11T09:40:57.246Z,17.50
2017-09-11T09:43:24.810Z,17.40
2017-09-11T09:45:53.127Z,17.40
2017-09-11T09:48:20.700Z,17.40
2017-09-11T09:50:48.233Z,17.50
2017-09-11T09:53:15.801Z,17.40
2017-09-11T09:55:43.345Z,17.40
2017-09-11T09:58:10.919Z,17.30
2017-09-11T10:00:38.656Z,17.30
2017-09-11T10:03:06.224Z,17.30
2017-09-11T10:05:34.514Z,17.20
2017-09-11T10:08:02.115Z,17.20
2017-09-11T10:10:29.640Z,17.20
2017-09-11T10:12:57.173Z,17.20
2017-09-11T10:15:24.760Z,17.20
2017-09-11T10:17:52.308Z,17.40
2017-09-11T10:20:20.664Z,17.50
2017-09-11T10:22:48.199Z,17.50
2017-09-11T10:25:15.779Z,17.60
2017-09-11T10:27:43.319Z,17.60
2017-09-11T10:30:10.898Z,17.60
2017-09-11T10:32:38.425Z,17.50
2017-09-11T10:35:05.995Z,17.30
2017-09-11T10:37:33.523Z,17.30
2017-09-11T10:40:01.982Z,17.20
2017-09-11T10:42:29.513Z,17.20
2017-09-11T10:44:57.072Z,17.10
2017-09-11T10:47:24.615Z,17.00
2017-09-11T10:49:52.208Z,16.90
2017-09-11T10:52:19.744Z,16.90
2017-09-11T10:54:47.330Z,16.70
2017-09-11T10:57:15.629Z,16.80
2017-09-11T10:59:43.167Z,16.80
2017-09-11T11:02:10.726Z,16.80
2017-09-11T11:04:38.300Z,16.90
2017-09-11T11:07:05.829Z,17.10
2017-09-11T11:09:33.421Z,17.30
2017-09-11T11:12:01.718Z,17.90
2017-09-11T11:14:29.247Z,17.90
2017-09-11T11:16:56.827Z,18.10
2017-09-11T11:19:24.424Z,18.50
2017-09-11T11:21:51.961Z,18.60
2017-09-11T11:24:20.279Z,18.70
2017-09-11T11:26:47.863Z,18.70
2017-09-11T11:29:16.163Z,18.90
2017-09-11T11:31:43.736Z,18.90
2017-09-11T11:34:11.273Z,19.20
2017-09-11T11:36:38.862Z,19.30
2017-09-11T11:39:07.172Z,19.20
2017-09-11T11:42:06.923Z,19.10
2017-09-11T11:44:35.224Z,19.20
2017-09-11T11:47:02.779Z,19.20
2017-09-11T11:49:30.306Z,19.50
2017-09-11T11:51:57.882Z,19.60
2017-09-11T11:54:25.411Z,19.20
2017-09-11T11:56:52.970Z,19.10
2017-09-11T11:59:20.503Z,19.00
2017-09-11T12:01:48.119Z,18.60
2017-09-11T12:04:15.662Z,18.50
2017-09-11T12:06:43.245Z,18.50
2017-09-11T12:09:10.775Z,18.30
2017-09-11T12:11:38.310Z,18.00
2017-09-11T12:14:06.358Z,17.80
2017-09-11T12:16:33.890Z,17.70
2017-09-11T12:19:02.220Z,17.20
2017-09-11T12:21:29.848Z,17.20
2017-09-11T12:23:57.406Z,17.20
2017-09-11T12:26:24.932Z,17.10
2017-09-11T12:28:52.498Z,17.10
2017-09-11T12:31:20.076Z,17.10
2017-09-11T12:33:48.384Z,17.20
2017-09-11T12:36:15.951Z,17.10
2017-09-11T12:38:43.481Z,17.30
2017-09-11T12:41:11.055Z,17.50
2017-09-11T12:43:38.583Z,17.50
2017-09-11T12:46:06.886Z,17.20
2017-09-11T12:48:35.222Z,17.00
2017-09-11T12:51:02.810Z,17.00
2017-09-11T12:53:30.335Z,16.90
2017-09-11T12:55:58.641Z,16.60
2017-09-11T12:58:26.223Z,16.60
2017-09-11T13:00:53.757Z,16.40
2017-09-11T13:03:21.323Z,16.40
2017-09-11T13:05:48.855Z,16.40
2017-09-11T13:08:16.455Z,16.20
2017-09-11T13:10:43.987Z,16.20
2017-09-11T13:13:11.545Z,16.30
2017-09-11T13:15:39.091Z,16.60
2017-09-11T13:18:06.655Z,17.00
2017-09-11T13:20:34.183Z,17.20
2017-09-11T13:23:01.744Z,17.20
2017-09-11T13:25:29.271Z,17.20
2017-09-11T13:27:57.122Z,17.10
2017-09-11T13:30:25.210Z,17.00
2017-09-11T13:32:52.783Z,16.70
2017-09-11T13:35:20.307Z,16.70
2017-09-11T13:37:47.892Z,16.70
2017-09-11T13:40:15.455Z,16.80
2017-09-11T13:42:43.089Z,16.90
2017-09-11T13:45:10.623Z,16.90
2017-09-11T13:47:38.949Z,17.10
2017-09-11T13:50:06.479Z,17.10
2017-09-11T13:52:34.127Z,17.30
2017-09-11T13:55:01.683Z,17.40
2017-09-11T13:57:29.250Z,17.60
2017-09-11T13:59:57.544Z,18.30
2017-09-11T14:02:25.122Z,18.30
2017-09-11T14:04:52.674Z,18.50
2017-09-11T14:07:20.238Z,18.50
2017-09-11T14:09:47.771Z,18.60
2017-09-11T14:12:15.338Z,18.60
2017-09-11T14:14:42.879Z,18.50
2017-09-11T14:17:10.454Z,18.30
2017-09-11T14:19:38.756Z,17.80
2017-09-11T14:22:06.321Z,17.80
2017-09-11T14:24:33.839Z,17.60
2017-09-11T14:27:01.397Z,17.60
2017-09-11T14:29:28.934Z,17.50
2017-09-11T14:31:56.507Z,17.50
2017-09-11T14:34:24.062Z,17.40
2017-09-11T14:36:52.470Z,17.30
2017-09-11T14:39:20.011Z,17.30
2017-09-11T14:41:47.605Z,17.30
2017-09-11T14:44:15.128Z,17.30
2017-09-11T14:46:42.719Z,17.50
2017-09-11T14:49:11.021Z,17.80
2017-09-11T14:51:38.598Z,17.70
2017-09-11T14:54:06.156Z,17.80
2017-09-11T14:56:34.485Z,17.80
2017-09-11T14:59:02.063Z,17.80
2017-09-11T15:01:29.685Z,17.80
2017-09-11T15:03:57.243Z,17.80
2017-09-11T15:06:24.777Z,17.60
2017-09-11T15:08:52.417Z,17.50
2017-09-11T15:11:19.961Z,17.40
2017-09-11T15:13:47.522Z,17.30
2017-09-11T15:16:15.053Z,17.20
2017-09-11T15:18:42.615Z,17.20
2017-09-11T15:21:10.403Z,17.10
2017-09-11T15:23:39.726Z,17.30
2017-09-11T15:26:07.440Z,17.30
2017-09-11T15:28:35.771Z,17.50
2017-09-11T15:31:03.308Z,17.40
2017-09-11T15:33:30.866Z,17.50
2017-09-11T15:35:58.687Z,17.50
2017-09-11T15:38:26.254Z,17.40
2017-09-11T15:40:53.800Z,17.40
2017-09-11T15:43:21.401Z,17.40
2017-09-11T15:45:48.927Z,17.40
2017-09-11T15:48:17.267Z,17.20
2017-09-11T15:50:44.795Z,17.20
2017-09-11T15:53:12.328Z,17.20
2017-09-11T15:55:39.891Z,17.20
2017-09-11T15:58:07.426Z,17.20
2017-09-11T16:00:34.992Z,17.30
2017-09-11T16:03:02.535Z,17.30
2017-09-11T16:05:30.102Z,17.30
2017-09-11T16:07:58.458Z,17.10
2017-09-11T16:10:26.880Z,17.00
2017-09-11T16:12:54.737Z,17.00
2017-09-11T16:15:22.335Z,16.80
2017-09-11T16:17:49.879Z,16.70
2017-09-11T16:20:17.422Z,16.70
2017-09-11T16:22:45.845Z,16.40
2017-09-11T16:25:13.450Z,16.40
2017-09-11T16:27:41.135Z,16.50
2017-09-11T16:30:08.726Z,16.50
2017-09-11T16:32:37.112Z,16.60
2017-09-11T16:35:05.495Z,16.70
2017-09-11T16:37:33.148Z,16.70
2017-09-11T16:40:00.746Z,16.60
2017-09-11T16:42:28.459Z,16.70
2017-09-11T16:44:56.303Z,16.60
2017-09-11T16:47:23.994Z,16.70
2017-09-11T16:49:51.647Z,16.70
2017-09-11T16:52:19.334Z,16.90
2017-09-11T16:54:46.953Z,16.90
2017-09-11T16:57:15.409Z,16.90
2017-09-11T16:59:43.517Z,16.90
2017-09-11T17:02:11.194Z,16.80
2017-09-11T17:04:38.784Z,16.60
2017-09-11T17:07:06.441Z,16.40
2017-09-11T17:09:34.031Z,16.40
2017-09-11T17:12:02.402Z,16.20
2017-09-11T17:14:31.569Z,16.10
2017-09-11T17:16:59.252Z,16.10
2017-09-11T17:19:26.862Z,16.00
2017-09-11T17:21:55.375Z,16.10
2017-09-11T17:24:23.177Z,16.10
2017-09-11T17:26:50.893Z,16.10
2017-09-11T17:29:19.328Z,16.00
2017-09-11T17:31:46.926Z,16.00
2017-09-11T17:34:14.539Z,15.90
2017-09-11T17:36:42.150Z,15.90
2017-09-11T17:39:10.532Z,15.90
2017-09-11T17:41:38.125Z,15.90
2017-09-11T17:44:05.723Z,15.90
2017-09-11T17:46:33.321Z,16.00
2017-09-11T17:49:00.968Z,15.90
2017-09-11T17:51:28.685Z,16.00
2017-09-11T17:53:56.362Z,15.90
2017-09-11T17:56:23.969Z,15.90
2017-09-11T17:58:51.567Z,15.90
2017-09-11T18:01:19.306Z,15.90
2017-09-11T18:03:46.890Z,16.00
2017-09-11T18:06:15.301Z,15.90
2017-09-11T18:08:42.894Z,15.80
2017-09-11T18:11:11.316Z,15.80
2017-09-11T18:13:38.923Z,15.80
2017-09-11T18:16:07.351Z,15.70
2017-09-11T18:18:34.945Z,15.70
2017-09-11T18:21:02.613Z,15.80
2017-09-11T18:23:30.209Z,15.70
2017-09-11T18:25:58.602Z,15.60
2017-09-11T18:28:26.454Z,15.60
2017-09-11T18:30:54.102Z,15.50
2017-09-11T18:33:21.711Z,15.40
2017-09-11T18:35:49.348Z,15.30
2017-09-11T18:38:16.958Z,15.10
2017-09-11T18:40:44.636Z,15.10
2017-09-11T18:43:12.256Z,14.90
2017-09-11T18:45:39.921Z,15.00
2017-09-11T18:48:07.514Z,15.00
2017-09-11T18:50:35.941Z,15.00
2017-09-11T18:53:03.467Z,15.00
2017-09-11T18:55:31.062Z,15.10
2017-09-11T18:57:59.444Z,15.00
2017-09-11T19:00:28.868Z,15.00
2017-09-11T19:02:56.425Z,15.00
2017-09-11T19:05:24.035Z,14.90
2017-09-11T19:07:52.349Z,14.90
2017-09-11T19:10:19.923Z,15.00
2017-09-11T19:12:47.747Z,14.80
2017-09-11T19:15:15.317Z,14.90
2017-09-11T19:17:42.847Z,14.70
2017-09-11T19:20:10.432Z,14.60
2017-09-11T19:22:38.005Z,14.50
2017-09-11T19:25:05.565Z,14.40
2017-09-11T19:27:33.145Z,14.40
2017-09-11T19:30:00.681Z,14.50
2017-09-11T19:32:28.507Z,14.40
2017-09-11T19:34:56.104Z,14.40
2017-09-11T19:37:24.523Z,14.40
2017-09-11T19:39:52.082Z,14.40
2017-09-11T19:42:19.643Z,14.40
2017-09-11T19:44:47.187Z,14.40
2017-09-11T19:47:14.743Z,14.30
2017-09-11T19:49:43.045Z,14.30
2017-09-11T19:52:11.391Z,14.40
2017-09-11T19:54:38.919Z,14.40
2017-09-11T19:57:07.272Z,14.40
2017-09-11T19:59:35.592Z,14.40
2017-09-11T20:02:03.240Z,14.40
2017-09-11T20:04:30.782Z,14.30
2017-09-11T20:06:58.439Z,14.30
2017-09-11T20:09:26.145Z,14.30
2017-09-11T20:11:54.496Z,14.40
2017-09-11T20:14:22.112Z,14.40
2017-09-11T20:16:49.719Z,14.40
2017-09-11T20:19:17.329Z,14.50
2017-09-11T20:21:45.655Z,14.30
2017-09-11T20:24:13.211Z,14.30
2017-09-11T20:26:40.795Z,14.30
2017-09-11T20:29:09.105Z,14.30
2017-09-11T20:31:36.714Z,14.30
2017-09-11T20:34:04.270Z,14.30
2017-09-11T20:36:31.893Z,14.30
2017-09-11T20:39:00.224Z,14.10
2017-09-11T20:41:27.791Z,14.20
2017-09-11T20:43:56.091Z,14.20
2017-09-11T20:46:23.661Z,14.10
2017-09-11T20:48:51.225Z,14.00
2017-09-11T20:51:18.822Z,14.10
2017-09-11T20:53:46.368Z,14.20
2017-09-11T20:56:13.929Z,14.20
2017-09-11T20:58:41.475Z,14.10
2017-09-11T21:01:09.021Z,14.20
2017-09-11T21:03:37.375Z,14.30
2017-09-11T21:06:04.923Z,14.30
2017-09-11T21:08:32.492Z,14.30
2017-09-11T21:11:00.108Z,14.20
2017-09-11T21:13:27.688Z,14.30
2017-09-11T21:15:55.247Z,14.30
2017-09-11T21:18:22.848Z,14.20
2017-09-11T21:20:50.408Z,14.20
2017-09-11T21:23:18.210Z,14.20
2017-09-11T21:25:46.520Z,14.30
2017-09-11T21:28:14.102Z,14.30
2017-09-11T21:30:41.703Z,14.20
2017-09-11T21:33:09.312Z,14.30
2017-09-11T21:35:37.654Z,14.40
2017-09-11T21:38:05.175Z,14.40
2017-09-11T21:40:32.779Z,14.30
2017-09-11T21:43:01.234Z,14.30
2017-09-11T21:45:29.811Z,14.20
2017-09-11T21:47:57.346Z,14.20
2017-09-11T21:50:25.361Z,14.20
2017-09-11T21:52:53.999Z,14.30
2017-09-11T21:55:21.586Z,14.30
2017-09-11T21:57:49.144Z,14.20
2017-09-11T22:00:16.763Z,14.30
2017-09-11T22:02:44.291Z,14.20
2017-09-11T22:05:11.857Z,14.10
2017-09-11T22:07:39.400Z,14.20
2017-09-11T22:10:06.974Z,14.10
2017-09-11T22:12:34.552Z,14.10
2017-09-11T22:15:02.136Z,14.00
2017-09-11T22:17:29.666Z,14.00
2017-09-11T22:19:57.323Z,14.00
2017-09-11T22:22:24.962Z,13.90
2017-09-11T22:24:54.016Z,13.90
2017-09-11T22:27:21.691Z,13.80
2017-09-11T22:29:49.323Z,13.80
2017-09-11T22:32:16.948Z,13.80
2017-09-11T22:34:45.358Z,13.70
2017-09-11T22:37:12.983Z,13.70
2017-09-11T22:39:40.581Z,13.60
2017-09-11T22:42:08.121Z,13.60
2017-09-11T22:44:35.724Z,13.60
2017-09-11T22:47:03.559Z,13.50
2017-09-11T22:49:32.043Z,13.50
2017-09-11T22:52:00.731Z,13.50
2017-09-11T22:54:28.324Z,13.40
2017-09-11T22:56:56.672Z,13.20
2017-09-11T22:59:24.347Z,13.20
2017-09-11T23:01:51.954Z,13.10
2017-09-11T23:04:19.515Z,13.10
2017-09-11T23:06:47.043Z,13.20
2017-09-11T23:09:14.621Z,13.20
2017-09-11T23:11:42.914Z,13.30
2017-09-11T23:14:10.483Z,13.30
2017-09-11T23:16:38.553Z,13.40
2017-09-11T23:19:06.137Z,13.40
2017-09-11T23:21:33.667Z,13.40
2017-09-11T23:24:01.958Z,13.60
2017-09-11T23:26:29.523Z,13.70
2017-09-11T23:28:57.047Z,13.70
2017-09-11T23:31:24.625Z,13.70
2017-09-11T23:33:52.159Z,13.80
2017-09-11T23:36:19.730Z,13.90
2017-09-11T23:38:47.259Z,13.90
2017-09-11T23:41:14.838Z,13.90
2017-09-11T23:43:42.388Z,13.90
2017-09-11T23:46:10.678Z,13.90
2017-09-11T23:48:38.252Z,13.80
2017-09-11T23:51:05.789Z,13.90
2017-09-11T23:53:33.347Z,13.90
2017-09-11T23:56:00.891Z,13.90
2017-09-11T23:58:28.470Z,13.90
